createdAt,value
2024-03-29T09:06:04.192Z,973.3496
2024-03-29T09:07:02.988Z,973.3761
2024-03-29T09:08:03.102Z,973.4213
2024-03-29T09:09:03.247Z,973.3902
2024-03-29T09:10:03.339Z,973.2725
2024-03-29T09:11:03.482Z,973.3978
2024-03-29T09:12:03.598Z,973.3795
2024-03-29T09:13:03.708Z,973.2652
2024-03-29T09:14:06.075Z,973.1539
2024-03-29T09:15:01.275Z,973.1838
2024-03-29T09:16:01.401Z,973.278
2024-03-29T09:17:03.196Z,973.1932
2024-03-29T09:18:03.264Z,973.2609
2024-03-29T09:19:03.385Z,973.3936
2024-03-29T09:20:01.874Z,973.1327
2024-03-29T09:21:01.997Z,973.2236
2024-03-29T09:22:02.074Z,973.2992
2024-03-29T09:23:03.863Z,973.3475
2024-03-29T09:24:01.311Z,973.101
2024-03-29T09:25:01.431Z,973.1999
2024-03-29T09:26:01.534Z,973.1741
2024-03-29T09:27:01.656Z,972.9686
2024-03-29T09:28:03.463Z,973.0378
2024-03-29T09:29:01.914Z,973.0089
2024-03-29T09:30:02.016Z,973.066
2024-03-29T09:31:02.080Z,973.0089
2024-03-29T09:32:03.998Z,973.2498
2024-03-29T09:33:01.357Z,973.0089
2024-03-29T09:34:01.492Z,973.0595
2024-03-29T09:35:03.248Z,973.0177
2024-03-29T09:36:03.344Z,973.0956
2024-03-29T09:37:03.464Z,973.107
2024-03-29T09:38:01.917Z,972.9913
2024-03-29T09:39:02.043Z,973.0507
2024-03-29T09:40:02.134Z,973.107
2024-03-29T09:41:02.916Z,973.0693
2024-03-29T09:42:03.020Z,973.1313
2024-03-29T09:43:06.196Z,973.2729
2024-03-29T09:44:03.215Z,973.2394
2024-03-29T09:45:01.696Z,973.1247
2024-03-29T09:46:01.834Z,973.1643
2024-03-29T09:47:01.931Z,973.1025
2024-03-29T09:48:01.992Z,972.9844
2024-03-29T09:49:03.734Z,973.0979
2024-03-29T09:50:02.239Z,973.008
2024-03-29T09:51:03.017Z,972.8875
2024-03-29T09:52:03.213Z,972.7814
2024-03-29T09:53:03.187Z,972.8057
2024-03-29T09:54:01.659Z,972.8347
2024-03-29T09:55:03.416Z,972.9444
2024-03-29T09:56:03.542Z,972.9413
2024-03-29T09:57:01.993Z,972.8253
2024-03-29T09:58:02.107Z,972.8253
2024-03-29T09:59:03.866Z,972.8543
2024-03-29T10:00:02.963Z,972.9946
2024-03-29T10:01:03.011Z,972.7047
2024-03-29T10:02:01.516Z,972.8538
2024-03-29T10:03:03.278Z,972.6283
2024-03-29T10:04:03.366Z,972.8892
2024-03-29T10:05:01.823Z,972.8538
2024-03-29T10:06:03.567Z,972.7627
2024-03-29T10:07:03.696Z,972.7545
2024-03-29T10:08:02.190Z,972.8349
2024-03-29T10:09:03.894Z,972.6385
2024-03-29T10:10:02.989Z,972.7801
2024-03-29T10:11:01.428Z,972.6344
2024-03-29T10:12:03.196Z,972.7221
2024-03-29T10:13:03.265Z,972.5869
2024-03-29T10:14:03.428Z,972.6158
2024-03-29T10:15:03.498Z,972.7568
2024-03-29T10:16:03.618Z,972.8704
2024-03-29T10:17:02.071Z,972.7545
2024-03-29T10:18:03.817Z,972.8704
2024-03-29T10:19:03.880Z,972.9154
2024-03-29T10:20:01.441Z,972.8574
2024-03-29T10:21:03.090Z,972.7568
2024-03-29T10:22:01.627Z,972.7793
2024-03-29T10:23:03.330Z,972.9154
2024-03-29T10:24:01.756Z,973.0176
2024-03-29T10:25:01.896Z,973.0313
2024-03-29T10:26:01.965Z,973.0313
2024-03-29T10:27:02.063Z,972.9886
2024-03-29T10:28:02.204Z,972.9925
2024-03-29T10:29:02.955Z,973.0794
2024-03-29T10:30:01.451Z,972.9216
2024-03-29T10:31:01.532Z,973.0665
2024-03-29T10:32:01.585Z,973.1179
2024-03-29T10:33:03.796Z,973.1397
2024-03-29T10:34:03.430Z,973.1919
2024-03-29T10:35:01.962Z,973.134
2024-03-29T10:36:02.032Z,973.0525
2024-03-29T10:37:02.144Z,973.264
2024-03-29T10:38:02.210Z,972.9969
2024-03-29T10:39:02.921Z,973.424
2024-03-29T10:40:03.103Z,973.1931
2024-03-29T10:41:03.238Z,973.1642
2024-03-29T10:42:03.293Z,973.275
2024-03-29T10:43:03.397Z,973.2396
2024-03-29T10:44:01.854Z,973.2396
2024-03-29T10:45:03.606Z,973.2396
2024-03-29T10:46:02.073Z,973.2396
2024-03-29T10:47:03.873Z,973.3958
2024-03-29T10:48:02.887Z,973.1688
2024-03-29T10:49:03.043Z,973.2042
2024-03-29T10:50:03.596Z,973.1977
2024-03-29T10:51:01.559Z,973.1688
2024-03-29T10:52:03.328Z,973.1775
2024-03-29T10:53:01.778Z,973.2
2024-03-29T10:54:01.875Z,973.1848
2024-03-29T10:55:01.966Z,973.0713
2024-03-29T10:56:02.066Z,973.1333
2024-03-29T10:57:03.815Z,973.1688
2024-03-29T10:58:02.919Z,973.0907
2024-03-29T10:59:03.017Z,973.0979
2024-03-29T11:00:01.496Z,973.216
2024-03-29T11:01:03.205Z,973.0648
2024-03-29T11:02:03.354Z,973.1741
2024-03-29T11:03:03.428Z,973.1936
2024-03-29T11:04:01.899Z,973.2065
2024-03-29T11:05:01.993Z,973.2427
2024-03-29T11:06:03.745Z,973.1581
2024-03-29T11:07:03.903Z,973.232
2024-03-29T11:08:02.941Z,973.4347
2024-03-29T11:09:01.386Z,973.3341
2024-03-29T11:10:01.539Z,973.3414
2024-03-29T11:11:01.604Z,973.1604
2024-03-29T11:12:01.716Z,973.3341
2024-03-29T11:13:01.823Z,973.3414
2024-03-29T11:14:03.558Z,973.4667
2024-03-29T11:15:02.084Z,973.2801
2024-03-29T11:16:02.192Z,973.2157
2024-03-29T11:17:02.253Z,973.5211
2024-03-29T11:18:01.390Z,973.5328
2024-03-29T11:19:03.064Z,973.5488
2024-03-29T11:20:01.545Z,973.4236
2024-03-29T11:21:03.303Z,973.5352
2024-03-29T11:22:03.494Z,973.5724
2024-03-29T11:23:01.899Z,973.5369
2024-03-29T11:24:02.004Z,973.6237
2024-03-29T11:25:02.081Z,973.623
2024-03-29T11:26:02.189Z,973.806
2024-03-29T11:27:01.332Z,973.5651
2024-03-29T11:28:03.055Z,973.6946
2024-03-29T11:29:01.544Z,973.6519
2024-03-29T11:30:03.272Z,973.9123
2024-03-29T11:31:01.755Z,973.8414
2024-03-29T11:32:03.507Z,973.8155
2024-03-29T11:33:01.946Z,973.898
2024-03-29T11:34:02.037Z,973.7637
2024-03-29T11:35:03.790Z,973.8085
2024-03-29T11:36:01.303Z,973.8302
2024-03-29T11:37:03.036Z,974.0356
2024-03-29T11:38:01.493Z,973.8312
2024-03-29T11:39:01.587Z,973.9456
2024-03-29T11:40:01.685Z,973.9254
2024-03-29T11:41:01.792Z,974.0086
2024-03-29T11:42:03.548Z,974.1264
2024-03-29T11:43:03.618Z,973.9568
2024-03-29T11:44:03.747Z,974.1077
2024-03-29T11:45:02.236Z,974.1077
2024-03-29T11:46:02.920Z,974.2327
2024-03-29T11:47:01.419Z,974.2702
2024-03-29T11:48:03.224Z,974.2393
2024-03-29T11:49:01.630Z,974.1088
2024-03-29T11:50:01.731Z,974.2207
2024-03-29T11:51:01.847Z,974.2525
2024-03-29T11:52:01.934Z,974.3644
2024-03-29T11:53:03.704Z,974.2022
2024-03-29T11:54:02.157Z,974.0608
2024-03-29T11:55:03.919Z,974.2339
2024-03-29T11:56:01.371Z,974.128
2024-03-29T11:57:03.118Z,974.2809
2024-03-29T11:58:01.549Z,974.1966
2024-03-29T11:59:03.313Z,974.1172
2024-03-29T12:00:01.774Z,974.1331
2024-03-29T12:01:03.518Z,974.2731
2024-03-29T12:02:03.618Z,974.3777
2024-03-29T12:03:02.090Z,974.1564
2024-03-29T12:04:03.872Z,974.2572
2024-03-29T12:05:02.925Z,974.02
2024-03-29T12:06:01.403Z,974.1
2024-03-29T12:07:01.482Z,974.0488
2024-03-29T12:08:01.576Z,973.9593
2024-03-29T12:09:01.736Z,974.0148
2024-03-29T12:10:01.830Z,973.9295
2024-03-29T12:11:01.932Z,973.8342
2024-03-29T12:12:02.019Z,973.9099
2024-03-29T12:13:02.110Z,973.8614
2024-03-29T12:14:03.931Z,973.776
2024-03-29T12:15:03.043Z,973.7772
2024-03-29T12:16:01.452Z,973.8594
2024-03-29T12:17:03.224Z,973.8021
2024-03-29T12:18:01.650Z,973.6778
2024-03-29T12:19:03.385Z,973.6459
2024-03-29T12:20:03.517Z,973.7166
2024-03-29T12:21:01.961Z,973.7014
2024-03-29T12:22:02.228Z,973.817
2024-03-29T12:23:03.800Z,973.8459
2024-03-29T12:24:02.940Z,973.7007
2024-03-29T12:25:03.063Z,973.83
2024-03-29T12:26:01.518Z,973.8761
2024-03-29T12:27:01.587Z,973.7647
2024-03-29T12:28:03.357Z,973.813
2024-03-29T12:29:03.440Z,973.8462
2024-03-29T12:30:01.916Z,973.8085
2024-03-29T12:31:02.035Z,973.648
2024-03-29T12:32:02.124Z,973.7671
2024-03-29T12:33:02.222Z,973.806
2024-03-29T12:34:04.883Z,973.6946
2024-03-29T12:35:01.434Z,973.5476
2024-03-29T12:36:01.594Z,973.5287
2024-03-29T12:37:03.280Z,973.4259
2024-03-29T12:38:03.354Z,973.475
2024-03-29T12:39:01.836Z,973.5488
2024-03-29T12:40:03.637Z,973.5371
2024-03-29T12:41:02.090Z,973.4213
2024-03-29T12:42:02.158Z,973.2405
2024-03-29T12:43:02.917Z,973.3924
2024-03-29T12:44:01.383Z,973.2824
2024-03-29T12:45:03.161Z,973.1891
2024-03-29T12:46:03.201Z,973.2565
2024-03-29T12:47:01.677Z,973.3433
2024-03-29T12:48:03.456Z,973.2234
2024-03-29T12:49:03.565Z,973.3551
2024-03-29T12:50:01.969Z,973.2394
2024-03-29T12:51:02.124Z,973.3262
2024-03-29T12:52:02.187Z,973.384
2024-03-29T12:53:01.519Z,973.2394
2024-03-29T12:54:01.375Z,973.1944
2024-03-29T12:55:01.607Z,973.2138
2024-03-29T12:56:01.726Z,973.1857
2024-03-29T12:57:01.839Z,973.0498
2024-03-29T12:58:01.883Z,973.1857
2024-03-29T12:59:01.934Z,973.0852
2024-03-29T13:00:02.153Z,973.0699
2024-03-29T13:01:03.812Z,973.0958
2024-03-29T13:02:02.954Z,973.132
2024-03-29T13:03:01.354Z,973.1738
2024-03-29T13:04:01.464Z,972.9617
2024-03-29T13:05:01.594Z,973.1452
2024-03-29T13:06:03.316Z,973.0979
2024-03-29T13:07:03.471Z,973.0483
2024-03-29T13:08:03.534Z,972.9607
2024-03-29T13:09:03.617Z,972.8497
2024-03-29T13:10:03.755Z,972.8497
2024-03-29T13:11:03.870Z,972.8844
2024-03-29T13:12:01.364Z,973.0044
2024-03-29T13:13:01.469Z,972.9151
2024-03-29T13:14:01.523Z,972.8122
2024-03-29T13:15:01.724Z,972.9177
2024-03-29T13:16:01.759Z,972.6836
2024-03-29T13:17:01.922Z,972.7006
2024-03-29T13:18:03.599Z,972.7627
2024-03-29T13:19:03.711Z,972.8538
2024-03-29T13:20:03.828Z,972.7419
2024-03-29T13:21:01.300Z,972.9356
2024-03-29T13:22:01.429Z,972.7961
2024-03-29T13:23:03.169Z,972.8744
2024-03-29T13:24:01.615Z,972.7454
2024-03-29T13:25:03.362Z,972.9753
2024-03-29T13:26:03.476Z,972.82
2024-03-29T13:27:01.941Z,973.0505
2024-03-29T13:28:02.034Z,972.7871
2024-03-29T13:29:02.127Z,972.9171
2024-03-29T13:30:02.307Z,972.9754
2024-03-29T13:31:01.337Z,972.8635
2024-03-29T13:32:03.124Z,972.812
2024-03-29T13:33:01.554Z,972.8067
2024-03-29T13:34:01.672Z,972.8426
2024-03-29T13:35:03.400Z,972.6177
2024-03-29T13:36:03.496Z,972.6755
2024-03-29T13:37:01.980Z,972.8405
2024-03-29T13:38:03.760Z,972.7457
2024-03-29T13:39:02.400Z,972.7111
2024-03-29T13:40:01.315Z,972.6991
2024-03-29T13:41:01.381Z,972.8368
2024-03-29T13:42:01.495Z,972.4963
2024-03-29T13:43:01.629Z,972.5826
2024-03-29T13:44:03.379Z,972.4641
2024-03-29T13:45:01.812Z,972.3616
2024-03-29T13:46:01.968Z,972.56
2024-03-29T13:47:03.718Z,972.6577
2024-03-29T13:48:02.151Z,972.6157
2024-03-29T13:49:02.200Z,972.6157
2024-03-29T13:50:03.073Z,972.5824
2024-03-29T13:51:01.466Z,972.6433
2024-03-29T13:52:03.251Z,972.7813
2024-03-29T13:53:03.333Z,972.6751
2024-03-29T13:54:03.431Z,972.6328
2024-03-29T13:55:03.551Z,972.7467
2024-03-29T13:56:03.626Z,972.7166
2024-03-29T13:57:02.141Z,972.8029
2024-03-29T13:58:03.864Z,972.6014
2024-03-29T13:59:01.305Z,972.7209
2024-03-29T14:00:01.397Z,972.5553
2024-03-29T14:01:03.137Z,972.7547
2024-03-29T14:02:01.634Z,972.7279
2024-03-29T14:03:03.380Z,972.7118
2024-03-29T14:04:01.810Z,972.7547
2024-03-29T14:05:01.941Z,972.4374
2024-03-29T14:06:03.692Z,972.6052
2024-03-29T14:07:02.129Z,972.656
2024-03-29T14:08:03.898Z,972.5447
2024-03-29T14:09:02.952Z,972.7474
2024-03-29T14:10:03.067Z,972.7118
2024-03-29T14:11:01.562Z,972.5979
2024-03-29T14:12:03.318Z,972.6407
2024-03-29T14:13:03.386Z,972.5696
2024-03-29T14:14:01.874Z,972.7279
2024-03-29T14:15:03.635Z,972.7474
2024-03-29T14:16:03.791Z,972.6407
2024-03-29T14:17:02.216Z,972.7505
2024-03-29T14:18:03.007Z,972.715
2024-03-29T14:19:03.035Z,972.5696
2024-03-29T14:20:01.490Z,972.6075
2024-03-29T14:21:03.236Z,972.6955
2024-03-29T14:22:01.709Z,972.4721
2024-03-29T14:23:01.791Z,972.5696
2024-03-29T14:24:01.908Z,972.5729
2024-03-29T14:25:02.022Z,972.7902
2024-03-29T14:26:02.124Z,972.7006
2024-03-29T14:27:04.713Z,972.6757
2024-03-29T14:28:01.313Z,972.5464
2024-03-29T14:29:01.407Z,972.9042
2024-03-29T14:30:03.146Z,972.8258
2024-03-29T14:31:01.631Z,972.8258
2024-03-29T14:32:01.703Z,972.7902
2024-03-29T14:33:04.844Z,972.7902
2024-03-29T14:34:03.569Z,972.7474
2024-03-29T14:35:03.764Z,972.7118
2024-03-29T14:36:02.152Z,972.744
2024-03-29T14:37:03.962Z,972.8401
2024-03-29T14:38:03.013Z,972.9563
2024-03-29T14:39:03.134Z,972.8401
2024-03-29T14:40:01.610Z,973.0347
2024-03-29T14:41:01.680Z,972.9314
2024-03-29T14:42:02.184Z,972.9218
2024-03-29T14:43:01.897Z,972.9623
2024-03-29T14:44:01.976Z,972.9826
2024-03-29T14:45:02.193Z,972.8276
2024-03-29T14:46:02.274Z,972.9836
2024-03-29T14:47:01.312Z,972.9039
2024-03-29T14:48:03.051Z,973.1181
2024-03-29T14:49:01.508Z,973.154
2024-03-29T14:50:03.224Z,973.1605
2024-03-29T14:51:03.358Z,973.3406
2024-03-29T14:52:01.843Z,973.2004
2024-03-29T14:53:03.567Z,973.1541
2024-03-29T14:54:02.027Z,973.1274
2024-03-29T14:55:03.762Z,973.1239
2024-03-29T14:56:13.396Z,973.2296
2024-03-29T14:57:02.970Z,973.2974
2024-03-29T14:58:03.085Z,973.374
2024-03-29T14:59:01.545Z,973.3124
2024-03-29T15:00:03.308Z,973.2412
2024-03-29T15:01:03.450Z,973.3575
2024-03-29T15:02:01.848Z,973.3575
2024-03-29T15:03:01.965Z,973.3575
2024-03-29T15:04:02.050Z,973.3552
2024-03-29T15:05:02.160Z,973.3101
2024-03-29T15:06:02.231Z,973.2488
2024-03-29T15:07:01.355Z,973.3556
2024-03-29T15:08:01.502Z,973.2522
2024-03-29T15:09:03.188Z,973.1886
2024-03-29T15:10:01.684Z,973.3192
2024-03-29T15:11:03.365Z,973.3988
2024-03-29T15:12:01.853Z,973.359
2024-03-29T15:14:03.707Z,973.2455
2024-03-29T15:15:02.253Z,973.3068
2024-03-29T15:17:01.378Z,973.349
2024-03-29T15:18:01.499Z,973.3609
2024-03-29T15:19:01.559Z,973.3575
2024-03-29T15:20:01.669Z,973.3395
2024-03-29T15:21:01.804Z,973.4387
2024-03-29T15:22:01.891Z,973.3996
2024-03-29T15:23:01.963Z,973.4999
2024-03-29T15:24:03.758Z,973.4904
2024-03-29T15:25:04.244Z,973.3426
2024-03-29T15:26:02.937Z,973.4065
2024-03-29T15:27:01.404Z,973.5237
2024-03-29T15:28:03.158Z,973.6033
2024-03-29T15:29:03.280Z,973.5795
2024-03-29T15:30:03.407Z,973.6377
2024-03-29T15:31:05.026Z,973.6786
2024-03-29T15:32:01.904Z,973.5871
2024-03-29T15:33:03.699Z,973.6491
2024-03-29T15:34:03.796Z,973.5997
2024-03-29T15:35:02.250Z,973.5802
2024-03-29T15:36:01.333Z,973.618
2024-03-29T15:37:05.080Z,973.6632
2024-03-29T15:38:03.167Z,973.592
2024-03-29T15:39:01.653Z,973.5236
2024-03-29T15:40:03.403Z,973.7194
2024-03-29T15:41:03.507Z,973.5086
2024-03-29T15:42:01.971Z,973.66
2024-03-29T15:43:02.105Z,973.6565
2024-03-29T15:44:02.169Z,973.5651
2024-03-29T15:45:01.286Z,973.5724
2024-03-29T15:46:03.019Z,973.8079
2024-03-29T15:47:01.504Z,973.7941
2024-03-29T15:48:03.232Z,973.6939
2024-03-29T15:49:01.687Z,973.6809
2024-03-29T15:50:03.458Z,973.6736
2024-03-29T15:51:03.553Z,973.7317
2024-03-29T15:52:02.020Z,973.6025
2024-03-29T15:53:02.124Z,973.7615
2024-03-29T15:54:02.230Z,973.6381
2024-03-29T15:55:02.964Z,973.6897
2024-03-29T15:56:01.408Z,973.8059
2024-03-29T15:57:01.580Z,973.7317
2024-03-29T15:58:03.271Z,973.7447
2024-03-29T15:59:03.368Z,973.8029
2024-03-29T16:00:03.492Z,973.7941
2024-03-29T16:01:01.941Z,973.765
2024-03-29T16:02:02.040Z,973.861
2024-03-29T16:03:03.824Z,973.7898
2024-03-29T16:04:02.252Z,973.9221
2024-03-29T16:05:02.981Z,973.9381
2024-03-29T16:06:03.078Z,973.8394
2024-03-29T16:07:01.567Z,973.8417
2024-03-29T16:08:01.653Z,973.9158
2024-03-29T16:09:01.783Z,973.9834
2024-03-29T16:10:01.883Z,974.0444
2024-03-29T16:11:01.990Z,973.9726
2024-03-29T16:12:02.145Z,973.8885
2024-03-29T16:13:03.934Z,973.9763
2024-03-29T16:14:01.320Z,973.885
2024-03-29T16:15:03.021Z,973.959
2024-03-29T16:16:01.553Z,973.8872
2024-03-29T16:17:03.283Z,973.959
2024-03-29T16:18:01.756Z,973.9387
2024-03-29T16:19:01.822Z,974.1224
2024-03-29T16:20:01.976Z,974.0796
2024-03-29T16:21:02.003Z,974.0963
2024-03-29T16:22:03.756Z,974.1543
2024-03-29T16:23:02.209Z,974.018
2024-03-29T16:24:01.305Z,974.1696
2024-03-29T16:25:03.067Z,973.9803
2024-03-29T16:26:01.546Z,974.018
2024-03-29T16:27:03.245Z,973.9803
2024-03-29T16:28:01.722Z,973.8482
2024-03-29T16:29:01.794Z,973.8967
2024-03-29T16:30:03.598Z,974.2645
2024-03-29T16:31:02.020Z,974.0011
2024-03-29T16:32:02.136Z,973.885
2024-03-29T16:33:02.223Z,973.959
2024-03-29T16:34:01.363Z,973.9387
2024-03-29T16:35:03.237Z,973.9097
2024-03-29T16:36:01.583Z,973.8612
2024-03-29T16:37:03.278Z,974.0513
2024-03-29T16:38:03.415Z,974.0085
2024-03-29T16:39:01.885Z,973.931
2024-03-29T16:40:01.966Z,973.8237
2024-03-29T16:41:03.724Z,973.8237
2024-03-29T16:42:02.174Z,973.8237
2024-03-29T16:43:01.263Z,973.8237
2024-03-29T16:44:03.016Z,973.8237
2024-03-29T16:45:03.103Z,973.8237
2024-03-29T16:46:03.263Z,973.8237
2024-03-29T16:47:01.688Z,973.6034
2024-03-29T16:48:01.822Z,973.6614
2024-03-29T16:49:01.904Z,973.6194
2024-03-29T16:50:03.656Z,973.6507
2024-03-29T16:51:02.098Z,973.5964
2024-03-29T16:52:02.226Z,973.5609
2024-03-29T16:53:02.974Z,973.5632
2024-03-29T16:54:03.090Z,973.6277
2024-03-29T16:55:01.523Z,973.701
2024-03-29T16:56:01.611Z,973.6277
2024-03-29T16:57:01.735Z,973.5377
2024-03-29T16:58:01.819Z,973.6395
2024-03-29T16:59:03.596Z,973.4626
2024-03-29T17:00:02.039Z,973.6425
2024-03-29T17:01:03.784Z,973.5163
2024-03-29T17:02:02.939Z,973.4542
2024-03-29T17:03:01.361Z,973.3535
2024-03-29T17:04:01.454Z,973.3375
2024-03-29T17:05:01.593Z,973.4832
2024-03-29T17:06:01.692Z,973.3962
2024-03-29T17:07:03.451Z,973.3962
2024-03-29T17:08:03.512Z,973.421
2024-03-29T17:09:03.637Z,973.4725
2024-03-29T17:10:02.142Z,973.437
2024-03-29T17:11:02.191Z,973.2719
2024-03-29T17:12:01.347Z,973.2437
2024-03-29T17:13:01.408Z,973.4271
2024-03-29T17:14:01.489Z,973.2178
2024-03-29T17:15:03.237Z,973.3272
2024-03-29T17:16:03.380Z,973.1759
2024-03-29T17:17:01.881Z,973.3078
2024-03-29T17:18:01.927Z,973.2007
2024-03-29T17:19:03.680Z,973.2007
2024-03-29T17:20:03.758Z,973.0654
2024-03-29T17:21:02.240Z,973.2682
2024-03-29T17:22:01.330Z,973.4667
2024-03-29T17:23:03.065Z,973.3958
2024-03-29T17:24:03.198Z,973.1688
2024-03-29T17:25:01.616Z,973.2042
2024-03-29T17:26:01.703Z,973.2042
2024-03-29T17:27:01.857Z,973.2396
2024-03-29T17:28:01.922Z,973.1688
2024-03-29T17:29:03.639Z,973.1196
2024-03-29T17:30:02.122Z,973.1357
2024-03-29T17:31:04.004Z,973.1936
2024-03-29T17:32:11.283Z,973.2515
2024-03-29T17:33:03.138Z,973.216
2024-03-29T17:34:01.550Z,973.2423
2024-03-29T17:35:03.317Z,973.2183
2024-03-29T17:36:03.388Z,973.1894
2024-03-29T17:37:01.898Z,973.2446
2024-03-29T17:38:02.009Z,973.2694
2024-03-29T17:39:02.088Z,973.2683
2024-03-29T17:40:02.160Z,973.4175
2024-03-29T17:41:02.921Z,973.2116
2024-03-29T17:42:01.439Z,973.185
2024-03-29T17:43:01.490Z,973.2227
2024-03-29T17:44:01.582Z,973.107
2024-03-29T17:45:01.739Z,973.1184
2024-03-29T17:46:01.818Z,973.2824
2024-03-29T17:47:03.614Z,973.3201
2024-03-29T17:48:02.037Z,973.1698
2024-03-29T17:49:03.789Z,973.4267
2024-03-29T17:50:03.867Z,973.3913
2024-03-29T17:51:01.343Z,973.3913
2024-03-29T17:52:01.424Z,973.3776
2024-03-29T17:53:01.598Z,973.3654
2024-03-29T17:54:03.291Z,973.4183
2024-03-29T17:55:03.408Z,973.3076
2024-03-29T17:56:03.498Z,973.4716
2024-03-29T17:57:03.634Z,973.6921
2024-03-29T17:58:02.103Z,973.51
2024-03-29T17:59:02.203Z,973.521
2024-03-29T18:00:01.419Z,973.4856
2024-03-29T18:01:01.403Z,973.3209
2024-03-29T18:02:03.154Z,973.4654
2024-03-29T18:03:01.611Z,973.292
2024-03-29T18:04:01.686Z,973.2639
2024-03-29T18:05:03.429Z,973.4076
2024-03-29T18:06:03.549Z,973.4814
2024-03-29T18:07:02.032Z,973.4525
2024-03-29T18:08:02.118Z,973.4814
2024-03-29T18:09:02.179Z,973.541
2024-03-29T18:10:02.947Z,973.3841
2024-03-29T18:11:01.429Z,973.2814
2024-03-29T18:12:01.527Z,973.2974
2024-03-29T18:13:01.643Z,973.3133
2024-03-29T18:14:01.760Z,973.4997
2024-03-29T18:15:01.847Z,973.3487
2024-03-29T18:16:01.935Z,973.3776
2024-03-29T18:17:03.709Z,973.1399
2024-03-29T18:18:03.818Z,973.3133
2024-03-29T18:19:01.279Z,973.3061
2024-03-29T18:20:01.416Z,973.4643
2024-03-29T18:21:01.449Z,973.3711
2024-03-29T18:22:01.543Z,973.335
2024-03-29T18:23:03.271Z,973.4514
2024-03-29T18:24:03.448Z,973.3164
2024-03-29T18:25:03.590Z,973.3027
2024-03-29T18:26:03.639Z,973.492
2024-03-29T18:27:02.127Z,973.4278
2024-03-29T18:28:02.229Z,973.511
2024-03-29T18:29:04.740Z,973.511
2024-03-29T18:30:01.419Z,973.8507
2024-03-29T18:31:01.523Z,973.6196
2024-03-29T18:32:01.630Z,973.8081
2024-03-29T18:33:01.741Z,973.6241
2024-03-29T18:34:01.844Z,973.5361
2024-03-29T18:35:03.641Z,973.61
2024-03-29T18:36:02.075Z,973.605
2024-03-29T18:37:02.151Z,973.465
2024-03-29T18:38:06.863Z,973.509
2024-03-29T18:39:01.374Z,973.608
2024-03-29T18:40:01.470Z,973.624
2024-03-29T18:41:01.578Z,973.6817
2024-03-29T18:42:01.641Z,973.624
2024-03-29T18:43:03.428Z,973.733
2024-03-29T18:44:03.541Z,973.6407
2024-03-29T18:45:01.978Z,973.5981
2024-03-29T18:46:03.724Z,973.7648
2024-03-29T18:47:02.223Z,973.9178
2024-03-29T18:48:01.261Z,973.6957
2024-03-29T18:49:01.391Z,973.7693
2024-03-29T18:50:03.140Z,973.6057
2024-03-29T18:51:01.604Z,973.8012
2024-03-29T18:52:03.343Z,973.7457
2024-03-29T18:53:03.413Z,973.6174
2024-03-29T18:54:03.559Z,973.9795
2024-03-29T18:55:03.643Z,973.9795
2024-03-29T18:56:02.119Z,973.9442
2024-03-29T18:57:03.870Z,973.8382
2024-03-29T18:58:01.330Z,973.8246
2024-03-29T18:59:01.434Z,973.705
2024-03-29T19:00:03.198Z,973.7281
2024-03-29T19:01:03.254Z,973.7721
2024-03-29T19:02:03.377Z,973.659
2024-03-29T19:03:03.451Z,973.7132
2024-03-29T19:04:03.550Z,973.7132
2024-03-29T19:05:02.033Z,973.6643
2024-03-29T19:06:02.128Z,973.7674
2024-03-29T19:07:02.265Z,973.6168
2024-03-29T19:08:03.002Z,973.7321
2024-03-29T19:09:01.488Z,973.5838
2024-03-29T19:10:03.221Z,973.5796
2024-03-29T19:11:03.300Z,973.6065
2024-03-29T19:12:01.797Z,973.6289
2024-03-29T19:13:03.560Z,973.6959
2024-03-29T19:14:03.642Z,973.5549
2024-03-29T19:15:03.720Z,973.5391
2024-03-29T19:16:03.828Z,973.6314
2024-03-29T19:17:02.868Z,973.6731
2024-03-29T19:18:03.060Z,973.9035
2024-03-29T19:19:03.147Z,973.7201
2024-03-29T19:20:03.223Z,973.8606
2024-03-29T19:21:01.716Z,973.7556
2024-03-29T19:22:03.469Z,973.7298
2024-03-29T19:23:01.946Z,973.7646
2024-03-29T19:24:02.079Z,973.6748
2024-03-29T19:25:02.156Z,973.5915
2024-03-29T19:26:02.250Z,973.6842
2024-03-29T19:27:02.999Z,973.649
2024-03-29T19:28:03.119Z,973.741
2024-03-29T19:29:01.622Z,973.7323
2024-03-29T19:30:01.702Z,973.6929
2024-03-29T19:31:01.764Z,973.7088
2024-03-29T19:32:01.874Z,973.6513
2024-03-29T19:33:01.995Z,973.6225
2024-03-29T19:34:03.712Z,973.7792
2024-03-29T19:35:03.808Z,973.8239
2024-03-29T19:36:01.267Z,973.6183
2024-03-29T19:37:03.052Z,973.7004
2024-03-29T19:38:01.494Z,973.8911
2024-03-29T19:39:02.291Z,973.8207
2024-03-29T19:40:01.733Z,973.8653
2024-03-29T19:41:01.826Z,973.7726
2024-03-29T19:42:03.533Z,973.7532
2024-03-29T19:43:02.003Z,973.6477
2024-03-29T19:44:02.160Z,973.6938
2024-03-29T19:45:02.247Z,973.617
2024-03-29T19:46:01.332Z,973.8851
2024-03-29T19:47:03.079Z,973.6763
2024-03-29T19:48:03.191Z,973.739
2024-03-29T19:49:03.272Z,973.6917
2024-03-29T19:50:01.799Z,973.7499
2024-03-29T19:51:03.497Z,973.8462
2024-03-29T19:52:03.664Z,973.9281
2024-03-29T19:53:02.098Z,973.9311
2024-03-29T19:54:02.152Z,973.8695
2024-03-29T19:55:01.284Z,973.8007
2024-03-29T19:56:01.346Z,973.9665
2024-03-29T19:57:01.490Z,973.9759
2024-03-29T19:58:01.581Z,973.8761
2024-03-29T19:59:01.691Z,973.793
2024-03-29T20:00:01.757Z,973.8175
2024-03-29T20:01:01.919Z,973.8749
2024-03-29T20:02:01.998Z,973.7703
2024-03-29T20:03:02.125Z,973.8435
2024-03-29T20:04:02.237Z,973.7445
2024-03-29T20:05:01.332Z,973.9167
2024-03-29T20:06:01.442Z,973.8479
2024-03-29T20:07:01.552Z,973.8403
2024-03-29T20:08:03.287Z,973.9931
2024-03-29T20:09:03.563Z,973.9251
2024-03-29T20:10:03.042Z,973.8571
2024-03-29T20:11:01.984Z,973.8484
2024-03-29T20:12:03.721Z,973.8801
2024-03-29T20:13:03.820Z,973.7812
2024-03-29T20:14:01.279Z,973.8759
2024-03-29T20:15:01.435Z,973.8759
2024-03-29T20:16:01.495Z,973.691
2024-03-29T20:17:03.243Z,973.8759
2024-03-29T20:18:03.336Z,973.8566
2024-03-29T20:19:01.820Z,973.9576
2024-03-29T20:20:03.578Z,973.9233
2024-03-29T20:21:02.031Z,973.8946
2024-03-29T20:22:06.044Z,973.8553
2024-03-29T20:23:02.232Z,973.8862
2024-03-29T20:24:03.020Z,973.8469
2024-03-29T20:25:03.099Z,973.7346
2024-03-29T20:26:01.557Z,973.8563
2024-03-29T20:27:01.651Z,974.0655
2024-03-29T20:28:01.753Z,973.8235
2024-03-29T20:29:01.880Z,973.9882
2024-03-29T20:30:03.649Z,973.8272
2024-03-29T20:31:02.069Z,973.7541
2024-03-29T20:32:02.173Z,973.9509
2024-03-29T20:33:02.913Z,973.9709
2024-03-29T20:34:03.012Z,973.9042
2024-03-29T20:35:01.499Z,973.8808
2024-03-29T20:36:01.612Z,973.9761
2024-03-29T20:37:03.346Z,973.9697
2024-03-29T20:38:03.432Z,973.9948
2024-03-29T20:39:01.905Z,974.1072
2024-03-29T20:40:02.042Z,973.9247
2024-03-29T20:41:03.772Z,974.0343
2024-03-29T20:42:02.234Z,973.9198
2024-03-29T20:43:01.327Z,973.8168
2024-03-29T20:44:01.428Z,973.9735
2024-03-29T20:45:01.529Z,973.977
2024-03-29T20:46:03.284Z,973.8869
2024-03-29T20:47:01.756Z,974.0086
2024-03-29T20:48:03.533Z,974.0723
2024-03-29T20:49:01.927Z,973.9864
2024-03-29T20:50:03.697Z,974.116
2024-03-29T20:51:03.836Z,974.116
2024-03-29T20:53:01.341Z,974.0688
2024-03-29T20:54:03.055Z,973.9407
2024-03-29T20:55:03.233Z,973.9407
2024-03-29T20:56:03.456Z,973.7818